sensor_id;sensor_type;location;lat;lon;timestamp;P1;durP1;ratioP1;P2;durP2;ratioP2
83115;SDS011;72996;40.206;44.498;2024-01-30T00:01:53;49.25;;;24.83;;
83115;SDS011;72996;40.206;44.498;2024-01-30T00:04:18;55.50;;;27.08;;
83115;SDS011;72996;40.206;44.498;2024-01-30T00:06:44;56.80;;;26.17;;
83115;SDS011;72996;40.206;44.498;2024-01-30T00:09:10;57.97;;;26.70;;
83115;SDS011;72996;40.206;44.498;2024-01-30T00:11:36;52.55;;;26.50;;
83115;SDS011;72996;40.206;44.498;2024-01-30T00:14:03;55.42;;;25.45;;
83115;SDS011;72996;40.206;44.498;2024-01-30T00:16:29;52.97;;;25.35;;
83115;SDS011;72996;40.206;44.498;2024-01-30T00:18:54;48.03;;;24.25;;
83115;SDS011;72996;40.206;44.498;2024-01-30T00:21:20;45.53;;;21.90;;
83115;SDS011;72996;40.206;44.498;2024-01-30T00:23:46;41.63;;;20.55;;
83115;SDS011;72996;40.206;44.498;2024-01-30T00:26:13;39.17;;;18.42;;
83115;SDS011;72996;40.206;44.498;2024-01-30T00:28:42;39.03;;;19.95;;
83115;SDS011;72996;40.206;44.498;2024-01-30T00:31:08;34.35;;;18.45;;
83115;SDS011;72996;40.206;44.498;2024-01-30T00:33:40;37.15;;;17.20;;
83115;SDS011;72996;40.206;44.498;2024-01-30T00:36:07;37.05;;;18.60;;
83115;SDS011;72996;40.206;44.498;2024-01-30T00:38:33;39.05;;;18.58;;
83115;SDS011;72996;40.206;44.498;2024-01-30T00:40:59;38.78;;;18.13;;
83115;SDS011;72996;40.206;44.498;2024-01-30T00:43:24;38.42;;;17.25;;
83115;SDS011;72996;40.206;44.498;2024-01-30T00:45:50;37.33;;;18.08;;
83115;SDS011;72996;40.206;44.498;2024-01-30T00:48:19;32.70;;;17.20;;
83115;SDS011;72996;40.206;44.498;2024-01-30T00:50:45;35.47;;;16.77;;
83115;SDS011;72996;40.206;44.498;2024-01-30T00:53:11;30.70;;;15.90;;
83115;SDS011;72996;40.206;44.498;2024-01-30T00:55:37;32.40;;;15.70;;
83115;SDS011;72996;40.206;44.498;2024-01-30T00:58:03;41.50;;;17.45;;
83115;SDS011;72996;40.206;44.498;2024-01-30T01:00:28;34.90;;;15.85;;
83115;SDS011;72996;40.206;44.498;2024-01-30T01:02:57;34.83;;;17.75;;
83115;SDS011;72996;40.206;44.498;2024-01-30T01:05:23;33.38;;;15.50;;
83115;SDS011;72996;40.206;44.498;2024-01-30T01:07:49;37.53;;;17.70;;
83115;SDS011;72996;40.206;44.498;2024-01-30T01:10:15;34.30;;;16.73;;
83115;SDS011;72996;40.206;44.498;2024-01-30T01:12:44;38.28;;;16.65;;
83115;SDS011;72996;40.206;44.498;2024-01-30T01:15:10;33.80;;;16.25;;
83115;SDS011;72996;40.206;44.498;2024-01-30T01:17:36;36.42;;;18.00;;
83115;SDS011;72996;40.206;44.498;2024-01-30T01:20:03;39.00;;;17.42;;
83115;SDS011;72996;40.206;44.498;2024-01-30T01:22:30;37.63;;;18.02;;
83115;SDS011;72996;40.206;44.498;2024-01-30T01:24:56;35.80;;;15.77;;
83115;SDS011;72996;40.206;44.498;2024-01-30T01:27:22;32.30;;;15.18;;
83115;SDS011;72996;40.206;44.498;2024-01-30T01:29:48;35.30;;;16.73;;
83115;SDS011;72996;40.206;44.498;2024-01-30T01:32:13;34.85;;;16.27;;
83115;SDS011;72996;40.206;44.498;2024-01-30T01:34:39;25.88;;;13.25;;
83115;SDS011;72996;40.206;44.498;2024-01-30T01:37:04;34.33;;;16.17;;
83115;SDS011;72996;40.206;44.498;2024-01-30T01:39:30;33.30;;;15.85;;
83115;SDS011;72996;40.206;44.498;2024-01-30T01:41:56;30.13;;;15.23;;
83115;SDS011;72996;40.206;44.498;2024-01-30T01:44:22;29.95;;;14.15;;
83115;SDS011;72996;40.206;44.498;2024-01-30T01:46:47;25.40;;;13.02;;
83115;SDS011;72996;40.206;44.498;2024-01-30T01:49:13;26.27;;;12.77;;
83115;SDS011;72996;40.206;44.498;2024-01-30T01:51:39;28.42;;;13.07;;
83115;SDS011;72996;40.206;44.498;2024-01-30T01:54:07;26.10;;;12.15;;
83115;SDS011;72996;40.206;44.498;2024-01-30T01:56:33;24.15;;;11.52;;
83115;SDS011;72996;40.206;44.498;2024-01-30T01:59:04;29.63;;;13.27;;
83115;SDS011;72996;40.206;44.498;2024-01-30T02:01:32;28.30;;;13.20;;
83115;SDS011;72996;40.206;44.498;2024-01-30T02:03:58;28.85;;;12.93;;
83115;SDS011;72996;40.206;44.498;2024-01-30T02:06:25;27.20;;;13.98;;
83115;SDS011;72996;40.206;44.498;2024-01-30T02:08:51;29.25;;;14.40;;
83115;SDS011;72996;40.206;44.498;2024-01-30T02:11:17;27.45;;;13.10;;
83115;SDS011;72996;40.206;44.498;2024-01-30T02:13:44;27.15;;;14.52;;
83115;SDS011;72996;40.206;44.498;2024-01-30T02:16:09;31.90;;;16.17;;
83115;SDS011;72996;40.206;44.498;2024-01-30T02:18:35;39.22;;;18.08;;
83115;SDS011;72996;40.206;44.498;2024-01-30T02:21:07;38.30;;;18.13;;
83115;SDS011;72996;40.206;44.498;2024-01-30T02:23:33;37.60;;;17.60;;
83115;SDS011;72996;40.206;44.498;2024-01-30T02:25:59;36.30;;;18.23;;
83115;SDS011;72996;40.206;44.498;2024-01-30T02:28:25;35.05;;;18.00;;
83115;SDS011;72996;40.206;44.498;2024-01-30T02:30:51;37.35;;;18.08;;
83115;SDS011;72996;40.206;44.498;2024-01-30T02:33:16;32.97;;;16.20;;
83115;SDS011;72996;40.206;44.498;2024-01-30T02:35:42;34.47;;;16.70;;
83115;SDS011;72996;40.206;44.498;2024-01-30T02:38:08;31.58;;;16.05;;
83115;SDS011;72996;40.206;44.498;2024-01-30T02:40:33;35.55;;;14.77;;
83115;SDS011;72996;40.206;44.498;2024-01-30T02:42:59;30.13;;;14.32;;
83115;SDS011;72996;40.206;44.498;2024-01-30T02:45:27;33.63;;;16.17;;
83115;SDS011;72996;40.206;44.498;2024-01-30T02:47:52;33.13;;;15.82;;
83115;SDS011;72996;40.206;44.498;2024-01-30T02:50:18;30.88;;;15.00;;
83115;SDS011;72996;40.206;44.498;2024-01-30T02:52:43;30.17;;;15.32;;
83115;SDS011;72996;40.206;44.498;2024-01-30T02:55:10;30.08;;;14.25;;
83115;SDS011;72996;40.206;44.498;2024-01-30T02:57:36;32.78;;;15.65;;
83115;SDS011;72996;40.206;44.498;2024-01-30T03:00:01;33.97;;;15.80;;
83115;SDS011;72996;40.206;44.498;2024-01-30T03:02:29;28.60;;;14.68;;
83115;SDS011;72996;40.206;44.498;2024-01-30T03:04:54;32.03;;;16.27;;
83115;SDS011;72996;40.206;44.498;2024-01-30T03:07:20;30.50;;;15.88;;
83115;SDS011;72996;40.206;44.498;2024-01-30T03:09:46;36.38;;;17.58;;
83115;SDS011;72996;40.206;44.498;2024-01-30T03:12:11;33.72;;;17.70;;
83115;SDS011;72996;40.206;44.498;2024-01-30T03:14:37;37.78;;;18.58;;
83115;SDS011;72996;40.206;44.498;2024-01-30T03:17:03;37.05;;;17.95;;
83115;SDS011;72996;40.206;44.498;2024-01-30T03:19:28;37.33;;;17.55;;
83115;SDS011;72996;40.206;44.498;2024-01-30T03:21:54;37.38;;;17.92;;
83115;SDS011;72996;40.206;44.498;2024-01-30T03:24:20;36.88;;;19.40;;
83115;SDS011;72996;40.206;44.498;2024-01-30T03:26:45;40.90;;;20.98;;
83115;SDS011;72996;40.206;44.498;2024-01-30T03:29:11;43.15;;;21.50;;
83115;SDS011;72996;40.206;44.498;2024-01-30T03:31:37;42.78;;;20.88;;
83115;SDS011;72996;40.206;44.498;2024-01-30T03:34:03;42.60;;;20.45;;
83115;SDS011;72996;40.206;44.498;2024-01-30T03:36:29;38.78;;;18.88;;
83115;SDS011;72996;40.206;44.498;2024-01-30T03:38:58;39.08;;;19.42;;
83115;SDS011;72996;40.206;44.498;2024-01-30T03:41:23;38.08;;;19.17;;
83115;SDS011;72996;40.206;44.498;2024-01-30T03:43:49;42.33;;;20.45;;
83115;SDS011;72996;40.206;44.498;2024-01-30T03:46:15;44.72;;;22.90;;
83115;SDS011;72996;40.206;44.498;2024-01-30T03:48:41;53.38;;;24.13;;
83115;SDS011;72996;40.206;44.498;2024-01-30T03:51:07;52.42;;;23.33;;
83115;SDS011;72996;40.206;44.498;2024-01-30T03:53:32;50.05;;;22.88;;
83115;SDS011;72996;40.206;44.498;2024-01-30T03:55:58;44.33;;;21.73;;
83115;SDS011;72996;40.206;44.498;2024-01-30T03:58:23;44.30;;;20.55;;
83115;SDS011;72996;40.206;44.498;2024-01-30T04:00:49;49.33;;;22.00;;
83115;SDS011;72996;40.206;44.498;2024-01-30T04:03:15;39.45;;;18.42;;
83115;SDS011;72996;40.206;44.498;2024-01-30T04:05:40;40.05;;;19.33;;
83115;SDS011;72996;40.206;44.498;2024-01-30T04:08:07;37.72;;;18.42;;
83115;SDS011;72996;40.206;44.498;2024-01-30T04:10:33;33.63;;;17.77;;
83115;SDS011;72996;40.206;44.498;2024-01-30T04:12:59;37.63;;;18.35;;
83115;SDS011;72996;40.206;44.498;2024-01-30T04:15:25;33.45;;;17.52;;
83115;SDS011;72996;40.206;44.498;2024-01-30T04:17:50;35.60;;;18.90;;
83115;SDS011;72996;40.206;44.498;2024-01-30T04:20:16;37.80;;;18.75;;
83115;SDS011;72996;40.206;44.498;2024-01-30T04:22:45;38.72;;;19.20;;
83115;SDS011;72996;40.206;44.498;2024-01-30T04:25:12;37.33;;;18.80;;
83115;SDS011;72996;40.206;44.498;2024-01-30T04:27:38;38.35;;;18.92;;
83115;SDS011;72996;40.206;44.498;2024-01-30T04:30:04;38.33;;;18.45;;
83115;SDS011;72996;40.206;44.498;2024-01-30T04:32:31;38.30;;;17.42;;
83115;SDS011;72996;40.206;44.498;2024-01-30T04:34:57;38.63;;;18.00;;
83115;SDS011;72996;40.206;44.498;2024-01-30T04:37:23;35.88;;;16.55;;
83115;SDS011;72996;40.206;44.498;2024-01-30T04:39:49;36.58;;;17.77;;
83115;SDS011;72996;40.206;44.498;2024-01-30T04:42:16;33.25;;;17.08;;
83115;SDS011;72996;40.206;44.498;2024-01-30T04:44:42;36.83;;;18.45;;
83115;SDS011;72996;40.206;44.498;2024-01-30T04:47:08;35.90;;;17.60;;
83115;SDS011;72996;40.206;44.498;2024-01-30T04:52:01;40.10;;;19.42;;
83115;SDS011;72996;40.206;44.498;2024-01-30T04:54:27;36.45;;;16.98;;
83115;SDS011;72996;40.206;44.498;2024-01-30T04:56:53;39.00;;;17.65;;
83115;SDS011;72996;40.206;44.498;2024-01-30T04:59:18;41.80;;;19.58;;
83115;SDS011;72996;40.206;44.498;2024-01-30T05:01:44;42.97;;;19.30;;
83115;SDS011;72996;40.206;44.498;2024-01-30T05:04:10;42.95;;;19.92;;
83115;SDS011;72996;40.206;44.498;2024-01-30T05:06:36;41.97;;;20.33;;
83115;SDS011;72996;40.206;44.498;2024-01-30T05:09:02;48.53;;;23.10;;
83115;SDS011;72996;40.206;44.498;2024-01-30T05:11:31;48.30;;;21.70;;
83115;SDS011;72996;40.206;44.498;2024-01-30T05:13:56;43.53;;;21.83;;
83115;SDS011;72996;40.206;44.498;2024-01-30T05:16:22;45.58;;;21.92;;
83115;SDS011;72996;40.206;44.498;2024-01-30T05:18:47;47.08;;;22.15;;
83115;SDS011;72996;40.206;44.498;2024-01-30T05:21:13;47.50;;;21.60;;
83115;SDS011;72996;40.206;44.498;2024-01-30T05:23:39;45.85;;;21.15;;
83115;SDS011;72996;40.206;44.498;2024-01-30T05:26:07;41.78;;;21.52;;
83115;SDS011;72996;40.206;44.498;2024-01-30T05:28:33;41.72;;;21.15;;
83115;SDS011;72996;40.206;44.498;2024-01-30T05:30:58;43.25;;;20.35;;
83115;SDS011;72996;40.206;44.498;2024-01-30T05:33:24;58.88;;;29.98;;
83115;SDS011;72996;40.206;44.498;2024-01-30T05:35:50;49.47;;;24.35;;
83115;SDS011;72996;40.206;44.498;2024-01-30T05:38:19;47.47;;;21.80;;
83115;SDS011;72996;40.206;44.498;2024-01-30T05:40:45;49.63;;;23.75;;
83115;SDS011;72996;40.206;44.498;2024-01-30T05:43:11;48.55;;;22.77;;
83115;SDS011;72996;40.206;44.498;2024-01-30T05:45:37;46.63;;;22.80;;
83115;SDS011;72996;40.206;44.498;2024-01-30T05:48:03;45.75;;;22.27;;
83115;SDS011;72996;40.206;44.498;2024-01-30T05:50:29;50.80;;;23.52;;
83115;SDS011;72996;40.206;44.498;2024-01-30T05:52:55;44.65;;;21.70;;
83115;SDS011;72996;40.206;44.498;2024-01-30T05:55:20;47.70;;;24.13;;
83115;SDS011;72996;40.206;44.498;2024-01-30T05:57:46;56.67;;;24.00;;
83115;SDS011;72996;40.206;44.498;2024-01-30T06:00:12;53.72;;;24.10;;
83115;SDS011;72996;40.206;44.498;2024-01-30T06:02:38;52.10;;;25.58;;
83115;SDS011;72996;40.206;44.498;2024-01-30T06:05:03;56.42;;;24.80;;
83115;SDS011;72996;40.206;44.498;2024-01-30T06:07:29;65.10;;;27.20;;
83115;SDS011;72996;40.206;44.498;2024-01-30T06:09:55;61.17;;;28.10;;
83115;SDS011;72996;40.206;44.498;2024-01-30T06:12:20;61.20;;;27.70;;
83115;SDS011;72996;40.206;44.498;2024-01-30T06:14:46;62.88;;;26.25;;
83115;SDS011;72996;40.206;44.498;2024-01-30T06:17:12;49.95;;;25.90;;
83115;SDS011;72996;40.206;44.498;2024-01-30T06:19:38;58.47;;;26.98;;
83115;SDS011;72996;40.206;44.498;2024-01-30T06:22:04;60.88;;;27.15;;
83115;SDS011;72996;40.206;44.498;2024-01-30T06:24:30;54.20;;;26.77;;
83115;SDS011;72996;40.206;44.498;2024-01-30T06:26:55;56.35;;;26.23;;
83115;SDS011;72996;40.206;44.498;2024-01-30T06:29:21;61.28;;;27.33;;
83115;SDS011;72996;40.206;44.498;2024-01-30T06:31:47;61.17;;;27.63;;
83115;SDS011;72996;40.206;44.498;2024-01-30T06:34:12;57.47;;;27.52;;
83115;SDS011;72996;40.206;44.498;2024-01-30T06:36:38;56.28;;;27.15;;
83115;SDS011;72996;40.206;44.498;2024-01-30T06:39:04;60.85;;;28.10;;
83115;SDS011;72996;40.206;44.498;2024-01-30T06:41:30;60.97;;;28.20;;
83115;SDS011;72996;40.206;44.498;2024-01-30T06:43:56;52.65;;;27.30;;
83115;SDS011;72996;40.206;44.498;2024-01-30T06:46:22;57.50;;;26.27;;
83115;SDS011;72996;40.206;44.498;2024-01-30T06:48:47;54.92;;;26.60;;
83115;SDS011;72996;40.206;44.498;2024-01-30T06:51:13;53.75;;;25.23;;
83115;SDS011;72996;40.206;44.498;2024-01-30T06:53:39;56.13;;;26.70;;
83115;SDS011;72996;40.206;44.498;2024-01-30T06:56:05;57.85;;;27.48;;
83115;SDS011;72996;40.206;44.498;2024-01-30T06:58:31;52.47;;;25.52;;
83115;SDS011;72996;40.206;44.498;2024-01-30T07:00:57;57.78;;;27.33;;
83115;SDS011;72996;40.206;44.498;2024-01-30T07:03:23;54.08;;;26.52;;
83115;SDS011;72996;40.206;44.498;2024-01-30T07:05:49;52.30;;;27.00;;
83115;SDS011;72996;40.206;44.498;2024-01-30T07:08:15;65.22;;;27.80;;
83115;SDS011;72996;40.206;44.498;2024-01-30T07:10:44;60.28;;;28.52;;
83115;SDS011;72996;40.206;44.498;2024-01-30T07:13:10;60.72;;;29.63;;
83115;SDS011;72996;40.206;44.498;2024-01-30T07:15:36;61.67;;;28.95;;
83115;SDS011;72996;40.206;44.498;2024-01-30T07:18:03;64.55;;;29.02;;
83115;SDS011;72996;40.206;44.498;2024-01-30T07:20:30;63.30;;;29.65;;
83115;SDS011;72996;40.206;44.498;2024-01-30T07:22:57;60.42;;;28.58;;
83115;SDS011;72996;40.206;44.498;2024-01-30T07:25:23;61.35;;;29.33;;
83115;SDS011;72996;40.206;44.498;2024-01-30T07:27:52;66.05;;;30.88;;
83115;SDS011;72996;40.206;44.498;2024-01-30T07:30:19;75.25;;;32.08;;
83115;SDS011;72996;40.206;44.498;2024-01-30T07:32:45;66.95;;;30.73;;
83115;SDS011;72996;40.206;44.498;2024-01-30T07:35:12;69.55;;;31.95;;
83115;SDS011;72996;40.206;44.498;2024-01-30T07:37:38;78.13;;;35.70;;
83115;SDS011;72996;40.206;44.498;2024-01-30T07:40:04;67.88;;;32.65;;
83115;SDS011;72996;40.206;44.498;2024-01-30T07:42:31;63.35;;;30.20;;
83115;SDS011;72996;40.206;44.498;2024-01-30T07:44:58;62.00;;;29.08;;
83115;SDS011;72996;40.206;44.498;2024-01-30T07:47:24;63.35;;;30.83;;
83115;SDS011;72996;40.206;44.498;2024-01-30T07:49:49;63.58;;;29.65;;
83115;SDS011;72996;40.206;44.498;2024-01-30T07:52:15;56.95;;;29.52;;
83115;SDS011;72996;40.206;44.498;2024-01-30T07:54:41;62.72;;;30.90;;
83115;SDS011;72996;40.206;44.498;2024-01-30T07:57:06;66.78;;;30.50;;
83115;SDS011;72996;40.206;44.498;2024-01-30T07:59:32;63.97;;;30.48;;
83115;SDS011;72996;40.206;44.498;2024-01-30T08:01:58;64.50;;;29.85;;
83115;SDS011;72996;40.206;44.498;2024-01-30T08:04:23;67.10;;;31.00;;
83115;SDS011;72996;40.206;44.498;2024-01-30T08:06:49;61.83;;;30.05;;
83115;SDS011;72996;40.206;44.498;2024-01-30T08:09:15;60.47;;;28.20;;
83115;SDS011;72996;40.206;44.498;2024-01-30T08:11:40;59.22;;;29.17;;
83115;SDS011;72996;40.206;44.498;2024-01-30T08:14:06;65.65;;;30.33;;
83115;SDS011;72996;40.206;44.498;2024-01-30T08:16:31;67.70;;;31.02;;
83115;SDS011;72996;40.206;44.498;2024-01-30T08:18:57;61.45;;;28.58;;
83115;SDS011;72996;40.206;44.498;2024-01-30T08:21:23;59.22;;;28.45;;
83115;SDS011;72996;40.206;44.498;2024-01-30T08:23:49;57.30;;;28.88;;
83115;SDS011;72996;40.206;44.498;2024-01-30T08:26:15;63.72;;;27.80;;
83115;SDS011;72996;40.206;44.498;2024-01-30T08:28:40;61.47;;;26.88;;
83115;SDS011;72996;40.206;44.498;2024-01-30T08:31:06;61.63;;;27.75;;
83115;SDS011;72996;40.206;44.498;2024-01-30T08:33:32;56.38;;;27.25;;
83115;SDS011;72996;40.206;44.498;2024-01-30T08:35:57;57.05;;;27.95;;
83115;SDS011;72996;40.206;44.498;2024-01-30T08:38:23;56.47;;;27.52;;
83115;SDS011;72996;40.206;44.498;2024-01-30T08:40:49;52.88;;;26.95;;
83115;SDS011;72996;40.206;44.498;2024-01-30T08:43:14;55.05;;;26.83;;
83115;SDS011;72996;40.206;44.498;2024-01-30T08:45:40;56.22;;;28.65;;
83115;SDS011;72996;40.206;44.498;2024-01-30T08:48:07;61.03;;;27.55;;
83115;SDS011;72996;40.206;44.498;2024-01-30T08:50:33;59.38;;;26.90;;
83115;SDS011;72996;40.206;44.498;2024-01-30T08:52:59;63.10;;;29.42;;
83115;SDS011;72996;40.206;44.498;2024-01-30T08:55:25;54.47;;;27.90;;
83115;SDS011;72996;40.206;44.498;2024-01-30T08:57:50;51.92;;;26.60;;
83115;SDS011;72996;40.206;44.498;2024-01-30T09:00:17;57.17;;;28.27;;
83115;SDS011;72996;40.206;44.498;2024-01-30T09:02:43;52.83;;;27.13;;
83115;SDS011;72996;40.206;44.498;2024-01-30T09:05:08;55.97;;;26.50;;
83115;SDS011;72996;40.206;44.498;2024-01-30T09:07:34;50.83;;;25.50;;
83115;SDS011;72996;40.206;44.498;2024-01-30T09:10:00;55.83;;;26.13;;
83115;SDS011;72996;40.206;44.498;2024-01-30T09:12:25;54.80;;;26.67;;
83115;SDS011;72996;40.206;44.498;2024-01-30T09:14:51;47.78;;;24.63;;
83115;SDS011;72996;40.206;44.498;2024-01-30T09:17:17;47.83;;;24.98;;
83115;SDS011;72996;40.206;44.498;2024-01-30T09:19:42;52.95;;;26.60;;
83115;SDS011;72996;40.206;44.498;2024-01-30T09:22:08;53.10;;;24.75;;
83115;SDS011;72996;40.206;44.498;2024-01-30T09:24:33;56.03;;;26.92;;
83115;SDS011;72996;40.206;44.498;2024-01-30T09:27:00;48.92;;;24.92;;
83115;SDS011;72996;40.206;44.498;2024-01-30T09:29:25;54.05;;;27.02;;
83115;SDS011;72996;40.206;44.498;2024-01-30T09:31:51;58.00;;;26.75;;
83115;SDS011;72996;40.206;44.498;2024-01-30T09:34:17;50.72;;;27.20;;
83115;SDS011;72996;40.206;44.498;2024-01-30T09:36:42;56.38;;;27.60;;
83115;SDS011;72996;40.206;44.498;2024-01-30T09:39:08;50.42;;;26.83;;
83115;SDS011;72996;40.206;44.498;2024-01-30T09:41:34;56.33;;;27.77;;
83115;SDS011;72996;40.206;44.498;2024-01-30T09:44:10;60.25;;;28.85;;
83115;SDS011;72996;40.206;44.498;2024-01-30T09:46:37;50.35;;;26.75;;
83115;SDS011;72996;40.206;44.498;2024-01-30T09:49:03;45.38;;;22.02;;
83115;SDS011;72996;40.206;44.498;2024-01-30T09:51:29;49.45;;;24.77;;
83115;SDS011;72996;40.206;44.498;2024-01-30T09:53:56;48.65;;;24.45;;
83115;SDS011;72996;40.206;44.498;2024-01-30T09:56:22;48.58;;;24.80;;
83115;SDS011;72996;40.206;44.498;2024-01-30T09:58:47;49.42;;;24.80;;
83115;SDS011;72996;40.206;44.498;2024-01-30T10:01:13;48.63;;;25.38;;
83115;SDS011;72996;40.206;44.498;2024-01-30T10:03:44;45.50;;;24.52;;
83115;SDS011;72996;40.206;44.498;2024-01-30T10:06:10;56.65;;;27.65;;
83115;SDS011;72996;40.206;44.498;2024-01-30T10:08:36;47.22;;;24.27;;
83115;SDS011;72996;40.206;44.498;2024-01-30T10:11:02;48.00;;;23.42;;
83115;SDS011;72996;40.206;44.498;2024-01-30T10:13:28;42.55;;;22.42;;
83115;SDS011;72996;40.206;44.498;2024-01-30T10:15:54;41.38;;;22.17;;
83115;SDS011;72996;40.206;44.498;2024-01-30T10:18:22;40.33;;;22.27;;
83115;SDS011;72996;40.206;44.498;2024-01-30T10:20:48;42.25;;;21.50;;
83115;SDS011;72996;40.206;44.498;2024-01-30T10:23:14;41.65;;;22.33;;
83115;SDS011;72996;40.206;44.498;2024-01-30T10:25:40;44.83;;;21.80;;
83115;SDS011;72996;40.206;44.498;2024-01-30T10:28:05;40.78;;;21.88;;
83115;SDS011;72996;40.206;44.498;2024-01-30T10:30:31;41.97;;;21.63;;
83115;SDS011;72996;40.206;44.498;2024-01-30T10:32:57;45.03;;;21.55;;
83115;SDS011;72996;40.206;44.498;2024-01-30T10:35:22;46.60;;;24.92;;
83115;SDS011;72996;40.206;44.498;2024-01-30T10:37:48;39.00;;;21.50;;
83115;SDS011;72996;40.206;44.498;2024-01-30T10:40:14;36.58;;;18.98;;
83115;SDS011;72996;40.206;44.498;2024-01-30T10:42:44;41.35;;;21.20;;
83115;SDS011;72996;40.206;44.498;2024-01-30T10:45:14;36.80;;;20.20;;
83115;SDS011;72996;40.206;44.498;2024-01-30T10:47:44;41.20;;;22.17;;
83115;SDS011;72996;40.206;44.498;2024-01-30T10:50:15;39.35;;;21.65;;
83115;SDS011;72996;40.206;44.498;2024-01-30T10:52:41;44.22;;;21.85;;
83115;SDS011;72996;40.206;44.498;2024-01-30T10:55:08;42.88;;;22.70;;
83115;SDS011;72996;40.206;44.498;2024-01-30T10:57:35;42.55;;;22.58;;
83115;SDS011;72996;40.206;44.498;2024-01-30T11:00:02;50.03;;;23.80;;
83115;SDS011;72996;40.206;44.498;2024-01-30T11:02:30;45.33;;;23.52;;
83115;SDS011;72996;40.206;44.498;2024-01-30T11:04:58;47.25;;;23.50;;
83115;SDS011;72996;40.206;44.498;2024-01-30T11:07:28;45.00;;;23.23;;
83115;SDS011;72996;40.206;44.498;2024-01-30T11:12:26;48.05;;;24.33;;
83115;SDS011;72996;40.206;44.498;2024-01-30T11:15:08;50.45;;;25.40;;
83115;SDS011;72996;40.206;44.498;2024-01-30T11:22:48;49.28;;;26.13;;
83115;SDS011;72996;40.206;44.498;2024-01-30T11:25:16;47.53;;;25.00;;
83115;SDS011;72996;40.206;44.498;2024-01-30T11:30:10;50.42;;;24.15;;
83115;SDS011;72996;40.206;44.498;2024-01-30T11:32:46;53.90;;;26.50;;
83115;SDS011;72996;40.206;44.498;2024-01-30T11:35:26;49.05;;;25.75;;
83115;SDS011;72996;40.206;44.498;2024-01-30T11:37:52;59.42;;;30.30;;
83115;SDS011;72996;40.206;44.498;2024-01-30T11:40:19;63.78;;;31.23;;
83115;SDS011;72996;40.206;44.498;2024-01-30T11:42:45;50.63;;;26.15;;
83115;SDS011;72996;40.206;44.498;2024-01-30T11:45:12;53.03;;;26.92;;
83115;SDS011;72996;40.206;44.498;2024-01-30T11:47:38;54.95;;;28.08;;
83115;SDS011;72996;40.206;44.498;2024-01-30T11:50:04;51.95;;;25.48;;
83115;SDS011;72996;40.206;44.498;2024-01-30T11:52:33;53.13;;;28.17;;
83115;SDS011;72996;40.206;44.498;2024-01-30T11:54:59;53.25;;;26.05;;
83115;SDS011;72996;40.206;44.498;2024-01-30T11:57:26;54.20;;;26.65;;
83115;SDS011;72996;40.206;44.498;2024-01-30T11:59:52;47.20;;;25.38;;
83115;SDS011;72996;40.206;44.498;2024-01-30T12:02:18;51.10;;;25.88;;
83115;SDS011;72996;40.206;44.498;2024-01-30T12:04:44;49.20;;;25.30;;
83115;SDS011;72996;40.206;44.498;2024-01-30T12:07:10;55.60;;;26.30;;
83115;SDS011;72996;40.206;44.498;2024-01-30T12:09:36;55.78;;;28.05;;
83115;SDS011;72996;40.206;44.498;2024-01-30T12:12:01;54.13;;;26.83;;
83115;SDS011;72996;40.206;44.498;2024-01-30T12:14:27;49.53;;;24.92;;
83115;SDS011;72996;40.206;44.498;2024-01-30T12:16:54;51.00;;;25.50;;
83115;SDS011;72996;40.206;44.498;2024-01-30T12:19:23;48.78;;;24.95;;
83115;SDS011;72996;40.206;44.498;2024-01-30T12:21:59;58.88;;;27.52;;
83115;SDS011;72996;40.206;44.498;2024-01-30T12:24:27;55.22;;;25.73;;
83115;SDS011;72996;40.206;44.498;2024-01-30T12:26:58;51.55;;;26.30;;
83115;SDS011;72996;40.206;44.498;2024-01-30T12:29:25;48.78;;;26.30;;
83115;SDS011;72996;40.206;44.498;2024-01-30T12:31:54;55.90;;;26.80;;
83115;SDS011;72996;40.206;44.498;2024-01-30T12:34:20;50.78;;;26.50;;
83115;SDS011;72996;40.206;44.498;2024-01-30T12:36:49;52.15;;;27.27;;
83115;SDS011;72996;40.206;44.498;2024-01-30T12:39:15;55.25;;;29.65;;
83115;SDS011;72996;40.206;44.498;2024-01-30T12:41:41;52.35;;;28.30;;
83115;SDS011;72996;40.206;44.498;2024-01-30T12:44:07;59.00;;;28.02;;
83115;SDS011;72996;40.206;44.498;2024-01-30T12:46:34;60.38;;;27.90;;
83115;SDS011;72996;40.206;44.498;2024-01-30T12:49:00;57.33;;;28.27;;
83115;SDS011;72996;40.206;44.498;2024-01-30T12:51:25;49.63;;;23.17;;
83115;SDS011;72996;40.206;44.498;2024-01-30T12:53:51;45.88;;;24.00;;
83115;SDS011;72996;40.206;44.498;2024-01-30T12:56:17;46.40;;;22.70;;
83115;SDS011;72996;40.206;44.498;2024-01-30T12:58:42;47.97;;;22.95;;
83115;SDS011;72996;40.206;44.498;2024-01-30T13:01:08;44.03;;;22.13;;
83115;SDS011;72996;40.206;44.498;2024-01-30T13:03:35;41.67;;;22.00;;
83115;SDS011;72996;40.206;44.498;2024-01-30T13:06:01;41.33;;;23.13;;
83115;SDS011;72996;40.206;44.498;2024-01-30T13:08:26;46.78;;;22.20;;
83115;SDS011;72996;40.206;44.498;2024-01-30T13:10:52;44.00;;;22.27;;
83115;SDS011;72996;40.206;44.498;2024-01-30T13:13:18;45.88;;;23.55;;
83115;SDS011;72996;40.206;44.498;2024-01-30T13:15:43;45.88;;;24.02;;
83115;SDS011;72996;40.206;44.498;2024-01-30T13:18:09;48.58;;;23.63;;
83115;SDS011;72996;40.206;44.498;2024-01-30T13:20:35;50.45;;;24.73;;
83115;SDS011;72996;40.206;44.498;2024-01-30T13:23:01;45.03;;;23.92;;
83115;SDS011;72996;40.206;44.498;2024-01-30T13:25:26;47.45;;;24.02;;
83115;SDS011;72996;40.206;44.498;2024-01-30T13:27:52;46.42;;;24.42;;
83115;SDS011;72996;40.206;44.498;2024-01-30T13:30:18;45.40;;;23.52;;
83115;SDS011;72996;40.206;44.498;2024-01-30T13:32:44;48.33;;;24.00;;
83115;SDS011;72996;40.206;44.498;2024-01-30T13:35:10;50.35;;;24.88;;
83115;SDS011;72996;40.206;44.498;2024-01-30T13:37:35;48.30;;;24.60;;
83115;SDS011;72996;40.206;44.498;2024-01-30T13:40:02;51.75;;;24.63;;
83115;SDS011;72996;40.206;44.498;2024-01-30T13:42:32;44.40;;;23.90;;
83115;SDS011;72996;40.206;44.498;2024-01-30T13:44:58;50.13;;;25.25;;
83115;SDS011;72996;40.206;44.498;2024-01-30T13:47:23;51.35;;;25.27;;
83115;SDS011;72996;40.206;44.498;2024-01-30T13:49:50;52.03;;;25.60;;
83115;SDS011;72996;40.206;44.498;2024-01-30T13:52:17;58.78;;;28.92;;
83115;SDS011;72996;40.206;44.498;2024-01-30T13:54:43;58.22;;;27.92;;
83115;SDS011;72996;40.206;44.498;2024-01-30T13:57:08;47.38;;;25.40;;
83115;SDS011;72996;40.206;44.498;2024-01-30T13:59:34;53.60;;;25.38;;
83115;SDS011;72996;40.206;44.498;2024-01-30T14:02:00;53.58;;;24.92;;
83115;SDS011;72996;40.206;44.498;2024-01-30T14:04:25;50.38;;;26.17;;
83115;SDS011;72996;40.206;44.498;2024-01-30T14:06:51;54.30;;;26.33;;
83115;SDS011;72996;40.206;44.498;2024-01-30T14:09:17;61.53;;;28.80;;
83115;SDS011;72996;40.206;44.498;2024-01-30T14:11:43;54.25;;;25.70;;
83115;SDS011;72996;40.206;44.498;2024-01-30T14:14:09;54.13;;;26.65;;
83115;SDS011;72996;40.206;44.498;2024-01-30T14:16:34;50.63;;;25.33;;